sensor_id;sensor_type;location;lat;lon;timestamp;pressure;altitude;pressure_sealevel;temperature;humidity
66547;BME280;53400;50.364;14.874;2023-02-03T00:01:56;99347.50;;;0.28;100.00
66547;BME280;53400;50.364;14.874;2023-02-03T00:04:22;99342.38;;;0.18;100.00
66547;BME280;53400;50.364;14.874;2023-02-03T00:06:48;99348.25;;;0.04;100.00
66547;BME280;53400;50.364;14.874;2023-02-03T00:09:17;99347.03;;;0.41;100.00
66547;BME280;53400;50.364;14.874;2023-02-03T00:11:43;99352.81;;;0.53;100.00
66547;BME280;53400;50.364;14.874;2023-02-03T00:14:09;99359.63;;;0.80;100.00
66547;BME280;53400;50.364;14.874;2023-02-03T00:16:35;99349.72;;;0.82;100.00
66547;BME280;53400;50.364;14.874;2023-02-03T00:19:01;99345.94;;;0.76;100.00
66547;BME280;53400;50.364;14.874;2023-02-03T00:21:26;99344.28;;;0.83;100.00
66547;BME280;53400;50.364;14.874;2023-02-03T00:23:52;99338.38;;;0.98;100.00
66547;BME280;53400;50.364;14.874;2023-02-03T00:26:20;99345.59;;;0.96;100.00
66547;BME280;53400;50.364;14.874;2023-02-03T00:28:46;99346.41;;;1.12;100.00
66547;BME280;53400;50.364;14.874;2023-02-03T00:31:17;99356.81;;;1.14;100.00
66547;BME280;53400;50.364;14.874;2023-02-03T00:33:43;99354.16;;;1.06;100.00
66547;BME280;53400;50.364;14.874;2023-02-03T00:36:10;99346.91;;;1.08;100.00
66547;BME280;53400;50.364;14.874;2023-02-03T00:38:36;99351.00;;;1.27;100.00
66547;BME280;53400;50.364;14.874;2023-02-03T00:41:02;99341.94;;;1.37;100.00
66547;BME280;53400;50.364;14.874;2023-02-03T00:43:30;99344.09;;;1.26;99.63
66547;BME280;53400;50.364;14.874;2023-02-03T00:45:55;99343.25;;;1.42;99.51
66547;BME280;53400;50.364;14.874;2023-02-03T00:48:21;99339.25;;;1.46;98.53
66547;BME280;53400;50.364;14.874;2023-02-03T00:50:47;99338.97;;;1.32;98.69
66547;BME280;53400;50.364;14.874;2023-02-03T00:53:14;99332.53;;;1.19;99.69
66547;BME280;53400;50.364;14.874;2023-02-03T00:55:42;99338.66;;;1.03;100.00
66547;BME280;53400;50.364;14.874;2023-02-03T00:58:08;99342.97;;;1.04;100.00
66547;BME280;53400;50.364;14.874;2023-02-03T01:00:36;99340.97;;;1.14;100.00
66547;BME280;53400;50.364;14.874;2023-02-03T01:03:02;99332.06;;;1.23;99.98
66547;BME280;53400;50.364;14.874;2023-02-03T01:05:28;99327.75;;;1.38;98.57
66547;BME280;53400;50.364;14.874;2023-02-03T01:07:54;99330.25;;;1.24;98.93
66547;BME280;53400;50.364;14.874;2023-02-03T01:10:20;99325.78;;;1.24;99.20
66547;BME280;53400;50.364;14.874;2023-02-03T01:12:46;99327.47;;;1.01;100.00
66547;BME280;53400;50.364;14.874;2023-02-03T01:15:12;99320.38;;;1.01;100.00
66547;BME280;53400;50.364;14.874;2023-02-03T01:17:40;99316.91;;;0.84;100.00
66547;BME280;53400;50.364;14.874;2023-02-03T01:20:06;99311.16;;;0.81;100.00
66547;BME280;53400;50.364;14.874;2023-02-03T01:22:32;99312.13;;;1.04;100.00
66547;BME280;53400;50.364;14.874;2023-02-03T01:24:58;99314.25;;;1.17;99.50
66547;BME280;53400;50.364;14.874;2023-02-03T01:27:24;99309.13;;;1.15;99.74
66547;BME280;53400;50.364;14.874;2023-02-03T01:29:50;99292.19;;;1.10;99.16
66547;BME280;53400;50.364;14.874;2023-02-03T01:32:16;99295.31;;;1.13;99.17
66547;BME280;53400;50.364;14.874;2023-02-03T01:34:43;99291.69;;;0.90;99.68
66547;BME280;53400;50.364;14.874;2023-02-03T01:37:09;99288.91;;;0.91;100.00
66547;BME280;53400;50.364;14.874;2023-02-03T01:39:34;99281.16;;;0.82;100.00
66547;BME280;53400;50.364;14.874;2023-02-03T01:42:00;99277.88;;;1.52;100.00
66547;BME280;53400;50.364;14.874;2023-02-03T01:44:48;99261.50;;;1.09;100.00
66547;BME280;53400;50.364;14.874;2023-02-03T01:47:27;99262.16;;;1.19;99.81
66547;BME280;53400;50.364;14.874;2023-02-03T01:50:00;99258.03;;;1.08;99.68
66547;BME280;53400;50.364;14.874;2023-02-03T01:52:28;99251.13;;;0.99;100.00
66547;BME280;53400;50.364;14.874;2023-02-03T01:54:55;99248.16;;;0.94;100.00
66547;BME280;53400;50.364;14.874;2023-02-03T01:57:26;99243.22;;;0.99;100.00
66547;BME280;53400;50.364;14.874;2023-02-03T01:59:55;99237.94;;;0.99;100.00
66547;BME280;53400;50.364;14.874;2023-02-03T02:02:24;99225.28;;;0.95;100.00
66547;BME280;53400;50.364;14.874;2023-02-03T02:04:53;99225.78;;;0.90;100.00
66547;BME280;53400;50.364;14.874;2023-02-03T02:07:23;99213.06;;;0.94;100.00
66547;BME280;53400;50.364;14.874;2023-02-03T02:09:50;99204.53;;;0.91;100.00
66547;BME280;53400;50.364;14.874;2023-02-03T02:12:16;99194.47;;;0.87;100.00
66547;BME280;53400;50.364;14.874;2023-02-03T02:14:42;99190.72;;;0.73;100.00
66547;BME280;53400;50.364;14.874;2023-02-03T02:17:14;99188.72;;;0.75;100.00
66547;BME280;53400;50.364;14.874;2023-02-03T02:20:01;99174.22;;;0.71;100.00
66547;BME280;53400;50.364;14.874;2023-02-03T02:22:42;99170.91;;;0.85;100.00
66547;BME280;53400;50.364;14.874;2023-02-03T02:31:49;99194.84;;;0.59;100.00
66547;BME280;53400;50.364;14.874;2023-02-03T02:34:21;99189.28;;;0.21;100.00
66547;BME280;53400;50.364;14.874;2023-02-03T02:36:55;99182.16;;;0.30;100.00
66547;BME280;53400;50.364;14.874;2023-02-03T02:39:37;99172.16;;;0.34;100.00
66547;BME280;53400;50.364;14.874;2023-02-03T02:42:09;99164.22;;;0.42;100.00
66547;BME280;53400;50.364;14.874;2023-02-03T02:44:43;99168.81;;;0.64;100.00
66547;BME280;53400;50.364;14.874;2023-02-03T02:47:16;99160.28;;;0.46;100.00
66547;BME280;53400;50.364;14.874;2023-02-03T02:49:46;99170.81;;;0.46;100.00
66547;BME280;53400;50.364;14.874;2023-02-03T02:52:16;99158.94;;;0.58;100.00
66547;BME280;53400;50.364;14.874;2023-02-03T02:54:46;99161.22;;;0.69;100.00
66547;BME280;53400;50.364;14.874;2023-02-03T02:57:13;99145.59;;;0.52;100.00
66547;BME280;53400;50.364;14.874;2023-02-03T02:59:39;99145.78;;;0.50;100.00
66547;BME280;53400;50.364;14.874;2023-02-03T03:02:05;99146.94;;;0.15;100.00
66547;BME280;53400;50.364;14.874;2023-02-03T03:04:33;99146.13;;;0.31;100.00
66547;BME280;53400;50.364;14.874;2023-02-03T03:07:00;99144.63;;;0.12;100.00
66547;BME280;53400;50.364;14.874;2023-02-03T03:09:32;99134.44;;;0.25;100.00
66547;BME280;53400;50.364;14.874;2023-02-03T03:12:05;99135.75;;;0.37;100.00
66547;BME280;53400;50.364;14.874;2023-02-03T03:14:34;99135.56;;;0.55;100.00
66547;BME280;53400;50.364;14.874;2023-02-03T03:17:03;99121.84;;;0.68;100.00
66547;BME280;53400;50.364;14.874;2023-02-03T03:19:34;99127.47;;;0.57;100.00
66547;BME280;53400;50.364;14.874;2023-02-03T03:22:04;99116.72;;;0.66;100.00
66547;BME280;53400;50.364;14.874;2023-02-03T03:24:39;99126.47;;;0.58;100.00
66547;BME280;53400;50.364;14.874;2023-02-03T03:27:09;99129.63;;;0.53;100.00
66547;BME280;53400;50.364;14.874;2023-02-03T03:29:41;99122.88;;;0.42;100.00
66547;BME280;53400;50.364;14.874;2023-02-03T03:32:08;99118.13;;;0.46;100.00
66547;BME280;53400;50.364;14.874;2023-02-03T03:34:36;99101.84;;;0.26;100.00
66547;BME280;53400;50.364;14.874;2023-02-03T03:37:06;99101.16;;;0.32;100.00
66547;BME280;53400;50.364;14.874;2023-02-03T03:39:43;99103.78;;;0.40;100.00
66547;BME280;53400;50.364;14.874;2023-02-03T03:42:18;99092.78;;;0.29;100.00
66547;BME280;53400;50.364;14.874;2023-02-03T03:44:51;99093.94;;;0.34;100.00
66547;BME280;53400;50.364;14.874;2023-02-03T03:47:23;99095.06;;;0.32;100.00
66547;BME280;53400;50.364;14.874;2023-02-03T03:49:54;99105.09;;;0.44;100.00
66547;BME280;53400;50.364;14.874;2023-02-03T03:52:25;99096.84;;;0.39;100.00
66547;BME280;53400;50.364;14.874;2023-02-03T03:54:54;99091.91;;;0.53;100.00
66547;BME280;53400;50.364;14.874;2023-02-03T03:57:23;99088.81;;;0.41;100.00
66547;BME280;53400;50.364;14.874;2023-02-03T03:59:50;99084.16;;;0.51;100.00
66547;BME280;53400;50.364;14.874;2023-02-03T04:02:17;99085.69;;;0.37;100.00
66547;BME280;53400;50.364;14.874;2023-02-03T04:04:45;99093.38;;;0.55;100.00
66547;BME280;53400;50.364;14.874;2023-02-03T04:07:13;99095.16;;;0.63;100.00
66547;BME280;53400;50.364;14.874;2023-02-03T04:09:39;99093.72;;;0.52;100.00
66547;BME280;53400;50.364;14.874;2023-02-03T04:12:13;99086.66;;;0.36;100.00
66547;BME280;53400;50.364;14.874;2023-02-03T04:14:41;99079.25;;;0.40;100.00
66547;BME280;53400;50.364;14.874;2023-02-03T04:17:07;99075.16;;;0.37;100.00
66547;BME280;53400;50.364;14.874;2023-02-03T04:19:33;99070.00;;;0.52;100.00
66547;BME280;53400;50.364;14.874;2023-02-03T04:21:59;99063.28;;;0.41;100.00
66547;BME280;53400;50.364;14.874;2023-02-03T04:24:26;99061.97;;;0.37;100.00
66547;BME280;53400;50.364;14.874;2023-02-03T04:26:52;99043.81;;;0.42;100.00
66547;BME280;53400;50.364;14.874;2023-02-03T04:29:18;99055.50;;;0.56;100.00
66547;BME280;53400;50.364;14.874;2023-02-03T04:31:44;99041.53;;;0.39;100.00
66547;BME280;53400;50.364;14.874;2023-02-03T04:34:10;99025.91;;;0.38;100.00
66547;BME280;53400;50.364;14.874;2023-02-03T04:36:36;99027.41;;;0.32;100.00
66547;BME280;53400;50.364;14.874;2023-02-03T04:39:02;99023.16;;;0.15;100.00
66547;BME280;53400;50.364;14.874;2023-02-03T04:41:29;99012.13;;;0.11;100.00
66547;BME280;53400;50.364;14.874;2023-02-03T04:43:55;99006.88;;;0.11;100.00
66547;BME280;53400;50.364;14.874;2023-02-03T04:46:21;98999.97;;;0.10;100.00
66547;BME280;53400;50.364;14.874;2023-02-03T04:48:47;98993.16;;;0.24;100.00
66547;BME280;53400;50.364;14.874;2023-02-03T04:51:13;98985.78;;;0.19;100.00
66547;BME280;53400;50.364;14.874;2023-02-03T04:53:38;98976.34;;;0.33;100.00
66547;BME280;53400;50.364;14.874;2023-02-03T04:56:05;98963.22;;;0.25;100.00
66547;BME280;53400;50.364;14.874;2023-02-03T04:58:32;98954.84;;;0.13;100.00
66547;BME280;53400;50.364;14.874;2023-02-03T05:01:05;98945.81;;;0.08;100.00
66547;BME280;53400;50.364;14.874;2023-02-03T05:03:32;98943.03;;;0.01;100.00
66547;BME280;53400;50.364;14.874;2023-02-03T05:05:58;98945.34;;;0.04;100.00
66547;BME280;53400;50.364;14.874;2023-02-03T05:08:24;98946.84;;;-0.02;100.00
66547;BME280;53400;50.364;14.874;2023-02-03T05:10:50;98943.41;;;-0.10;100.00
66547;BME280;53400;50.364;14.874;2023-02-03T05:13:16;98936.44;;;-0.03;100.00
66547;BME280;53400;50.364;14.874;2023-02-03T05:15:43;98935.81;;;0.03;100.00
66547;BME280;53400;50.364;14.874;2023-02-03T05:18:09;98932.16;;;0.12;100.00
66547;BME280;53400;50.364;14.874;2023-02-03T05:20:34;98935.47;;;-0.02;100.00
66547;BME280;53400;50.364;14.874;2023-02-03T05:23:01;98933.44;;;0.16;100.00
66547;BME280;53400;50.364;14.874;2023-02-03T05:25:26;98919.06;;;0.27;100.00
66547;BME280;53400;50.364;14.874;2023-02-03T05:27:52;98923.84;;;0.23;100.00
66547;BME280;53400;50.364;14.874;2023-02-03T05:30:18;98920.31;;;0.39;100.00
66547;BME280;53400;50.364;14.874;2023-02-03T05:32:47;98918.19;;;0.43;100.00
66547;BME280;53400;50.364;14.874;2023-02-03T05:35:13;98914.38;;;0.45;100.00
66547;BME280;53400;50.364;14.874;2023-02-03T05:37:39;98908.88;;;0.24;100.00
66547;BME280;53400;50.364;14.874;2023-02-03T05:40:06;98900.63;;;0.27;100.00
66547;BME280;53400;50.364;14.874;2023-02-03T05:42:50;98895.53;;;0.26;100.00
66547;BME280;53400;50.364;14.874;2023-02-03T05:45:16;98898.50;;;0.31;100.00
66547;BME280;53400;50.364;14.874;2023-02-03T05:47:42;98898.34;;;0.24;100.00
66547;BME280;53400;50.364;14.874;2023-02-03T05:50:09;98891.09;;;0.26;100.00
66547;BME280;53400;50.364;14.874;2023-02-03T05:52:36;98892.59;;;0.20;100.00
66547;BME280;53400;50.364;14.874;2023-02-03T05:55:01;98886.38;;;0.13;100.00
66547;BME280;53400;50.364;14.874;2023-02-03T05:57:28;98880.34;;;0.36;100.00
66547;BME280;53400;50.364;14.874;2023-02-03T05:59:53;98876.50;;;0.47;100.00
66547;BME280;53400;50.364;14.874;2023-02-03T06:02:19;98867.59;;;0.48;100.00
66547;BME280;53400;50.364;14.874;2023-02-03T06:04:45;98854.09;;;0.42;100.00
66547;BME280;53400;50.364;14.874;2023-02-03T06:07:12;98839.53;;;0.55;100.00
66547;BME280;53400;50.364;14.874;2023-02-03T06:09:38;98838.66;;;0.62;100.00
66547;BME280;53400;50.364;14.874;2023-02-03T06:12:05;98834.44;;;0.53;100.00
66547;BME280;53400;50.364;14.874;2023-02-03T06:14:30;98832.81;;;0.52;100.00
66547;BME280;53400;50.364;14.874;2023-02-03T06:16:56;98844.13;;;0.30;100.00
66547;BME280;53400;50.364;14.874;2023-02-03T06:19:22;98849.34;;;0.46;100.00
66547;BME280;53400;50.364;14.874;2023-02-03T06:21:48;98844.41;;;0.66;100.00
66547;BME280;53400;50.364;14.874;2023-02-03T06:24:15;98851.06;;;0.54;100.00
66547;BME280;53400;50.364;14.874;2023-02-03T06:26:41;98855.22;;;0.25;100.00
66547;BME280;53400;50.364;14.874;2023-02-03T06:29:07;98850.28;;;0.22;100.00
66547;BME280;53400;50.364;14.874;2023-02-03T06:31:33;98854.22;;;0.26;100.00
66547;BME280;53400;50.364;14.874;2023-02-03T06:33:59;98851.25;;;0.21;100.00
66547;BME280;53400;50.364;14.874;2023-02-03T06:36:27;98848.13;;;0.26;100.00
66547;BME280;53400;50.364;14.874;2023-02-03T06:38:52;98850.97;;;0.16;100.00
66547;BME280;53400;50.364;14.874;2023-02-03T06:41:20;98848.34;;;0.16;100.00
66547;BME280;53400;50.364;14.874;2023-02-03T06:43:51;98836.66;;;0.18;100.00
66547;BME280;53400;50.364;14.874;2023-02-03T06:46:17;98835.66;;;0.19;100.00
66547;BME280;53400;50.364;14.874;2023-02-03T06:48:43;98827.75;;;0.19;100.00
66547;BME280;53400;50.364;14.874;2023-02-03T06:51:09;98827.72;;;0.28;100.00
66547;BME280;53400;50.364;14.874;2023-02-03T06:53:35;98824.19;;;0.35;100.00
66547;BME280;53400;50.364;14.874;2023-02-03T06:56:01;98825.25;;;0.49;100.00
66547;BME280;53400;50.364;14.874;2023-02-03T06:58:29;98821.94;;;0.55;100.00
66547;BME280;53400;50.364;14.874;2023-02-03T07:00:55;98803.84;;;0.52;100.00
66547;BME280;53400;50.364;14.874;2023-02-03T07:03:20;98798.66;;;0.59;100.00
66547;BME280;53400;50.364;14.874;2023-02-03T07:05:46;98783.97;;;0.64;100.00
66547;BME280;53400;50.364;14.874;2023-02-03T07:08:12;98799.94;;;0.63;100.00
66547;BME280;53400;50.364;14.874;2023-02-03T07:10:38;98793.34;;;0.67;100.00
66547;BME280;53400;50.364;14.874;2023-02-03T07:13:05;98787.22;;;0.66;100.00
66547;BME280;53400;50.364;14.874;2023-02-03T07:15:34;98788.63;;;0.77;100.00
66547;BME280;53400;50.364;14.874;2023-02-03T07:18:00;98791.28;;;0.77;100.00
66547;BME280;53400;50.364;14.874;2023-02-03T07:20:26;98790.22;;;0.86;100.00
66547;BME280;53400;50.364;14.874;2023-02-03T07:22:54;98779.00;;;0.84;100.00
66547;BME280;53400;50.364;14.874;2023-02-03T07:25:20;98782.84;;;0.97;100.00
66547;BME280;53400;50.364;14.874;2023-02-03T07:27:47;98785.22;;;1.06;100.00
66547;BME280;53400;50.364;14.874;2023-02-03T07:30:13;98786.53;;;1.10;100.00
66547;BME280;53400;50.364;14.874;2023-02-03T07:32:42;98788.81;;;1.28;100.00
66547;BME280;53400;50.364;14.874;2023-02-03T07:35:10;98787.66;;;1.31;100.00
66547;BME280;53400;50.364;14.874;2023-02-03T07:37:36;98775.25;;;1.31;100.00
66547;BME280;53400;50.364;14.874;2023-02-03T07:40:03;98773.59;;;1.30;100.00
66547;BME280;53400;50.364;14.874;2023-02-03T07:42:28;98766.06;;;1.42;100.00
66547;BME280;53400;50.364;14.874;2023-02-03T07:44:54;98768.03;;;1.55;100.00
66547;BME280;53400;50.364;14.874;2023-02-03T07:47:20;98754.13;;;1.61;100.00
66547;BME280;53400;50.364;14.874;2023-02-03T07:49:48;98748.38;;;1.72;100.00
66547;BME280;53400;50.364;14.874;2023-02-03T07:52:13;98749.81;;;1.75;100.00
66547;BME280;53400;50.364;14.874;2023-02-03T07:54:40;98735.00;;;1.74;100.00
66547;BME280;53400;50.364;14.874;2023-02-03T07:57:05;98736.66;;;1.96;100.00
66547;BME280;53400;50.364;14.874;2023-02-03T07:59:32;98744.75;;;1.95;100.00
66547;BME280;53400;50.364;14.874;2023-02-03T08:01:58;98734.16;;;2.10;100.00
66547;BME280;53400;50.364;14.874;2023-02-03T08:04:24;98734.41;;;2.15;100.00
66547;BME280;53400;50.364;14.874;2023-02-03T08:06:51;98729.34;;;2.13;100.00
66547;BME280;53400;50.364;14.874;2023-02-03T08:09:17;98725.78;;;2.27;100.00
66547;BME280;53400;50.364;14.874;2023-02-03T08:11:43;98724.06;;;2.35;100.00
66547;BME280;53400;50.364;14.874;2023-02-03T08:14:09;98723.97;;;2.28;100.00
66547;BME280;53400;50.364;14.874;2023-02-03T08:16:35;98720.28;;;2.72;100.00
66547;BME280;53400;50.364;14.874;2023-02-03T08:19:02;98718.16;;;2.61;100.00
66547;BME280;53400;50.364;14.874;2023-02-03T08:21:28;98714.84;;;2.52;100.00
66547;BME280;53400;50.364;14.874;2023-02-03T08:23:55;98707.16;;;2.57;100.00
66547;BME280;53400;50.364;14.874;2023-02-03T08:26:22;98698.19;;;2.58;100.00
66547;BME280;53400;50.364;14.874;2023-02-03T08:28:48;98700.63;;;2.53;100.00
66547;BME280;53400;50.364;14.874;2023-02-03T08:31:15;98693.81;;;2.65;100.00
66547;BME280;53400;50.364;14.874;2023-02-03T08:33:41;98698.94;;;2.73;100.00
66547;BME280;53400;50.364;14.874;2023-02-03T08:36:10;98683.06;;;2.73;100.00
66547;BME280;53400;50.364;14.874;2023-02-03T08:38:39;98676.00;;;2.81;100.00
66547;BME280;53400;50.364;14.874;2023-02-03T08:41:12;98661.13;;;2.80;100.00
66547;BME280;53400;50.364;14.874;2023-02-03T08:43:39;98665.88;;;2.91;100.00
66547;BME280;53400;50.364;14.874;2023-02-03T08:46:06;98668.34;;;2.92;100.00
66547;BME280;53400;50.364;14.874;2023-02-03T08:48:33;98679.75;;;2.93;100.00
66547;BME280;53400;50.364;14.874;2023-02-03T08:50:59;98679.38;;;3.03;100.00
66547;BME280;53400;50.364;14.874;2023-02-03T08:53:25;98663.53;;;3.09;100.00
66547;BME280;53400;50.364;14.874;2023-02-03T08:55:51;98676.97;;;3.08;100.00
66547;BME280;53400;50.364;14.874;2023-02-03T08:58:18;98683.91;;;3.09;100.00
66547;BME280;53400;50.364;14.874;2023-02-03T09:00:44;98673.72;;;3.06;100.00
66547;BME280;53400;50.364;14.874;2023-02-03T09:03:13;98674.72;;;3.05;100.00
66547;BME280;53400;50.364;14.874;2023-02-03T09:05:39;98682.91;;;3.16;100.00
66547;BME280;53400;50.364;14.874;2023-02-03T09:08:05;98687.00;;;3.19;100.00
66547;BME280;53400;50.364;14.874;2023-02-03T09:10:31;98663.81;;;3.21;100.00
66547;BME280;53400;50.364;14.874;2023-02-03T09:12:57;98655.44;;;3.17;100.00
66547;BME280;53400;50.364;14.874;2023-02-03T09:15:24;98653.84;;;3.23;100.00
66547;BME280;53400;50.364;14.874;2023-02-03T09:17:51;98648.81;;;3.35;100.00
66547;BME280;53400;50.364;14.874;2023-02-03T09:20:18;98642.88;;;3.26;100.00
66547;BME280;53400;50.364;14.874;2023-02-03T09:22:45;98638.63;;;3.32;100.00
66547;BME280;53400;50.364;14.874;2023-02-03T09:25:11;98647.41;;;3.39;100.00
66547;BME280;53400;50.364;14.874;2023-02-03T09:27:38;98634.75;;;3.34;100.00
66547;BME280;53400;50.364;14.874;2023-02-03T09:30:05;98633.78;;;3.49;100.00
66547;BME280;53400;50.364;14.874;2023-02-03T09:32:33;98617.66;;;3.43;100.00
66547;BME280;53400;50.364;14.874;2023-02-03T09:34:58;98621.16;;;3.51;100.00
66547;BME280;53400;50.364;14.874;2023-02-03T09:37:24;98610.34;;;3.45;100.00
66547;BME280;53400;50.364;14.874;2023-02-03T09:39:50;98603.81;;;3.35;100.00
66547;BME280;53400;50.364;14.874;2023-02-03T09:42:27;98598.94;;;3.45;100.00
66547;BME280;53400;50.364;14.874;2023-02-03T09:45:03;98586.53;;;3.45;100.00
66547;BME280;53400;50.364;14.874;2023-02-03T09:47:35;98581.44;;;3.44;100.00
66547;BME280;53400;50.364;14.874;2023-02-03T09:50:04;98596.53;;;3.57;100.00
66547;BME280;53400;50.364;14.874;2023-02-03T09:52:32;98588.59;;;3.50;100.00
66547;BME280;53400;50.364;14.874;2023-02-03T09:55:02;98590.63;;;3.55;100.00
66547;BME280;53400;50.364;14.874;2023-02-03T09:57:30;98572.47;;;3.52;100.00
66547;BME280;53400;50.364;14.874;2023-02-03T09:59:58;98567.19;;;3.52;100.00
66547;BME280;53400;50.364;14.874;2023-02-03T10:02:46;98565.16;;;3.54;100.00
66547;BME280;53400;50.364;14.874;2023-02-03T10:05:20;98564.13;;;3.55;100.00
66547;BME280;53400;50.364;14.874;2023-02-03T10:07:55;98558.03;;;3.54;100.00
66547;BME280;53400;50.364;14.874;2023-02-03T10:10:36;98542.78;;;3.56;100.00
66547;BME280;53400;50.364;14.874;2023-02-03T10:13:15;98542.16;;;3.54;100.00
66547;BME280;53400;50.364;14.874;2023-02-03T10:16:07;98540.72;;;3.65;100.00
66547;BME280;53400;50.364;14.874;2023-02-03T10:18:40;98540.53;;;3.73;100.00
66547;BME280;53400;50.364;14.874;2023-02-03T10:21:13;98512.22;;;3.67;100.00
66547;BME280;53400;50.364;14.874;2023-02-03T10:23:43;98503.63;;;3.65;100.00
66547;BME280;53400;50.364;14.874;2023-02-03T10:26:13;98513.63;;;3.70;100.00
66547;BME280;53400;50.364;14.874;2023-02-03T10:28:47;98504.66;;;3.71;100.00
66547;BME280;53400;50.364;14.874;2023-02-03T10:31:17;98501.00;;;3.85;100.00
66547;BME280;53400;50.364;14.874;2023-02-03T10:33:46;98490.59;;;3.77;100.00
66547;BME280;53400;50.364;14.874;2023-02-03T10:36:17;98489.59;;;3.78;100.00
66547;BME280;53400;50.364;14.874;2023-02-03T10:38:52;98479.59;;;3.73;100.00
66547;BME280;53400;50.364;14.874;2023-02-03T10:41:23;98476.38;;;3.78;100.00
66547;BME280;53400;50.364;14.874;2023-02-03T10:43:49;98464.13;;;3.90;100.00
66547;BME280;53400;50.364;14.874;2023-02-03T10:46:18;98461.88;;;3.80;100.00
66547;BME280;53400;50.364;14.874;2023-02-03T10:48:46;98458.41;;;3.86;100.00
66547;BME280;53400;50.364;14.874;2023-02-03T10:51:19;98448.22;;;3.83;100.00
66547;BME280;53400;50.364;14.874;2023-02-03T10:53:47;98439.25;;;3.84;100.00
66547;BME280;53400;50.364;14.874;2023-02-03T10:56:15;98415.63;;;3.83;100.00
66547;BME280;53400;50.364;14.874;2023-02-03T10:58:48;98422.97;;;3.87;100.00
66547;BME280;53400;50.364;14.874;2023-02-03T11:01:16;98415.41;;;3.91;100.00
66547;BME280;53400;50.364;14.874;2023-02-03T11:03:44;98404.19;;;3.96;100.00
66547;BME280;53400;50.364;14.874;2023-02-03T11:06:20;98399.72;;;3.96;100.00
66547;BME280;53400;50.364;14.874;2023-02-03T11:08:48;98391.53;;;4.11;100.00
66547;BME280;53400;50.364;14.874;2023-02-03T11:11:20;98381.91;;;4.10;100.00
66547;BME280;53400;50.364;14.874;2023-02-03T11:13:54;98373.78;;;4.11;100.00
66547;BME280;53400;50.364;14.874;2023-02-03T11:16:20;98350.94;;;4.10;100.00
66547;BME280;53400;50.364;14.874;2023-02-03T11:18:56;98354.59;;;4.09;100.00
66547;BME280;53400;50.364;14.874;2023-02-03T11:21:28;98344.63;;;4.11;100.00
66547;BME280;53400;50.364;14.874;2023-02-03T11:24:03;98340.94;;;4.12;100.00
66547;BME280;53400;50.364;14.874;2023-02-03T11:26:33;98322.16;;;4.21;100.00
66547;BME280;53400;50.364;14.874;2023-02-03T11:29:02;98329.06;;;4.22;100.00
66547;BME280;53400;50.364;14.874;2023-02-03T11:31:31;98321.09;;;4.28;100.00
66547;BME280;53400;50.364;14.874;2023-02-03T11:34:01;98333.34;;;4.29;100.00
66547;BME280;53400;50.364;14.874;2023-02-03T11:36:33;98319.44;;;4.34;100.00
66547;BME280;53400;50.364;14.874;2023-02-03T11:39:15;98305.72;;;4.44;100.00
66547;BME280;53400;50.364;14.874;2023-02-03T11:41:42;98311.25;;;4.42;100.00
66547;BME280;53400;50.364;14.874;2023-02-03T11:44:18;98315.88;;;4.47;100.00
66547;BME280;53400;50.364;14.874;2023-02-03T11:46:46;98299.31;;;4.58;100.00
66547;BME280;53400;50.364;14.874;2023-02-03T11:52:26;98289.16;;;4.80;100.00
66547;BME280;53400;50.364;14.874;2023-02-03T11:55:06;98274.16;;;4.92;100.00
66547;BME280;53400;50.364;14.874;2023-02-03T11:57:42;98305.34;;;4.97;100.00
66547;BME280;53400;50.364;14.874;2023-02-03T12:00:22;98302.28;;;5.00;100.00
66547;BME280;53400;50.364;14.874;2023-02-03T12:03:14;98289.38;;;5.03;100.00
66547;BME280;53400;50.364;14.874;2023-02-03T12:05:58;98292.22;;;5.02;100.00
66547;BME280;53400;50.364;14.874;2023-02-03T12:08:42;98282.97;;;5.11;100.00
66547;BME280;53400;50.364;14.874;2023-02-03T12:11:22;98273.38;;;5.10;100.00
66547;BME280;53400;50.364;14.874;2023-02-03T12:14:03;98266.59;;;5.14;100.00
66547;BME280;53400;50.364;14.874;2023-02-03T12:16:49;98247.81;;;5.16;100.00
66547;BME280;53400;50.364;14.874;2023-02-03T12:19:28;98246.19;;;5.15;100.00
66547;BME280;53400;50.364;14.874;2023-02-03T12:22:05;98225.69;;;5.03;100.00
66547;BME280;53400;50.364;14.874;2023-02-03T12:24:42;98240.28;;;5.13;100.00
66547;BME280;53400;50.364;14.874;2023-02-03T12:27:21;98235.19;;;5.11;100.00
66547;BME280;53400;50.364;14.874;2023-02-03T12:29:56;98237.41;;;5.14;100.00
66547;BME280;53400;50.364;14.874;2023-02-03T12:32:29;98230.47;;;5.13;100.00
66547;BME280;53400;50.364;14.874;2023-02-03T12:35:03;98210.72;;;5.09;100.00
66547;BME280;53400;50.364;14.874;2023-02-03T12:37:43;98202.91;;;5.14;100.00
66547;BME280;53400;50.364;14.874;2023-02-03T12:40:15;98196.25;;;5.05;100.00
66547;BME280;53400;50.364;14.874;2023-02-03T12:42:46;98183.75;;;5.12;100.00
66547;BME280;53400;50.364;14.874;2023-02-03T12:45:17;98146.25;;;5.02;100.00
66547;BME280;53400;50.364;14.874;2023-02-03T12:47:48;98137.94;;;4.98;100.00
66547;BME280;53400;50.364;14.874;2023-02-03T12:50:18;98127.47;;;5.03;100.00
66547;BME280;53400;50.364;14.874;2023-02-03T12:52:50;98094.03;;;5.02;100.00
66547;BME280;53400;50.364;14.874;2023-02-03T12:55:21;98112.72;;;5.07;100.00
66547;BME280;53400;50.364;14.874;2023-02-03T12:57:50;98061.03;;;5.10;100.00
66547;BME280;53400;50.364;14.874;2023-02-03T13:00:32;98099.25;;;5.09;100.00
66547;BME280;53400;50.364;14.874;2023-02-03T13:03:08;98099.25;;;5.09;100.00
66547;BME280;53400;50.364;14.874;2023-02-03T13:05:41;98112.06;;;5.12;100.00
66547;BME280;53400;50.364;14.874;2023-02-03T13:08:14;98132.34;;;5.06;100.00
66547;BME280;53400;50.364;14.874;2023-02-03T13:10:47;98109.41;;;5.12;100.00